»·PEaware :: WAT169 KSAN-KSNA

WAT169 :: KSAN-KSNA

FLIGHT INFORMATION

Flight Status: Arrived
Operator:
Walker Air Transport
More flights by this operator :: More flights under this callsign
Pilot: Marty P. (27464)
Aircraft: BEECH AIRCRAFT SUPER KING AIR 350
(B350)
More flights by this aircraft type
Origin: KSAN San Diego Intl-Lindbergh
United States
Destination: KSNA John Wayne-Orange Co
United States
More flights between these airports :: More routes between these airports
Route: CWARD2 SLI
File this flight plan on PilotEdge
Remarks: SANP4R Hi Austin <3
Altitude:
(Current/Filed)
8,000ft
Speed:
(Current/Filed)
220kts
Departed: 25-Oct-20 12:16 PM
Arrived: 25-Oct-20 12:50 PM
Distance/Time
Traveled:
66nm/0:34
Distance/Time
To Go:
Arrived

Flight Plot

Page will automatically refresh every two minutes.

Flight plan parsing failed; only flown route is shown


Map Options




Map Legend


Flown Route
Filed Route
Departure Airport
Arrival Airport
Navaid (VOR, NDB)
Fix

Horizontal Profiles

Position Reports

Time Latitude Longitude Heading Altitude Ground
Speed
25-Oct-20 11:58 32.731554 -117.191338 66 22ft 0kts
25-Oct-20 11:59 32.731554 -117.191338 66 22ft 0kts
25-Oct-20 12:00 32.731554 -117.191338 66 22ft 0kts
25-Oct-20 12:01 32.731554 -117.191338 66 22ft 0kts
25-Oct-20 12:02 32.731554 -117.191338 66 22ft 0kts
25-Oct-20 12:03 32.731554 -117.191338 66 22ft 0kts
25-Oct-20 12:04 32.731554 -117.191338 66 22ft 0kts
25-Oct-20 12:05 32.731554 -117.191338 66 22ft 0kts
25-Oct-20 12:06 32.731554 -117.191338 66 22ft 0kts
25-Oct-20 12:07 32.732140 -117.190691 22 22ft 1kts
25-Oct-20 12:08 32.732143 -117.190689 22 22ft 0kts
25-Oct-20 12:09 32.732143 -117.190689 22 22ft 0kts
25-Oct-20 12:10 32.732312 -117.190605 22 22ft 6kts
25-Oct-20 12:11 32.731696 -117.186231 106 22ft 21kts
25-Oct-20 12:12 32.730086 -117.179597 108 22ft 15kts
25-Oct-20 12:13 32.729553 -117.176688 73 22ft 0kts
25-Oct-20 12:14 32.730205 -117.176390 301 22ft 14kts
25-Oct-20 12:15 32.738918 -117.206886 295 796ft 153kts
25-Oct-20 12:16 32.764817 -117.254603 300 2774ft 175kts
25-Oct-20 12:17 32.790743 -117.302658 300 5232ft 178kts
25-Oct-20 12:18 32.819762 -117.350498 304 7508ft 179kts
25-Oct-20 12:19 32.854971 -117.404486 305 8016ft 243kts
25-Oct-20 12:20 32.898724 -117.471687 305 7992ft 262kts
25-Oct-20 12:21 32.943527 -117.541244 305 7987ft 265kts
25-Oct-20 12:22 32.988341 -117.611097 305 7988ft 266kts
25-Oct-20 12:23 33.033512 -117.681605 304 7992ft 267kts
25-Oct-20 12:24 33.082463 -117.748399 316 7990ft 270kts
25-Oct-20 12:25 33.140277 -117.806845 317 7982ft 272kts
25-Oct-20 12:26 33.200508 -117.862011 335 7983ft 277kts
25-Oct-20 12:27 33.276294 -117.882215 346 7987ft 280kts
25-Oct-20 12:28 33.352651 -117.900918 345 7987ft 280kts
25-Oct-20 12:29 33.427351 -117.924606 340 7986ft 280kts
25-Oct-20 12:30 33.498524 -117.950315 341 6501ft 257kts
25-Oct-20 12:31 33.564108 -117.974292 341 5962ft 225kts
25-Oct-20 12:32 33.622524 -117.995642 341 5983ft 221kts
25-Oct-20 12:33 33.685058 -118.018274 342 5983ft 240kts
25-Oct-20 12:34 33.749265 -118.040596 352 5517ft 244kts
25-Oct-20 12:35 33.804239 -118.001191 63 4048ft 248kts
25-Oct-20 12:36 33.833196 -117.930831 63 3981ft 233kts
25-Oct-20 12:37 33.861708 -117.860467 63 3982ft 234kts
25-Oct-20 12:38 33.890250 -117.789561 64 3982ft 235kts
25-Oct-20 12:39 33.917887 -117.718309 63 3983ft 235kts
25-Oct-20 12:40 33.971397 -117.680941 24 3781ft 233kts
25-Oct-20 12:42 34.024332 -117.683573 291 3478ft 202kts
25-Oct-20 12:43 33.993263 -117.722439 164 3495ft 218kts
25-Oct-20 12:44 33.933231 -117.707114 192 3485ft 223kts
25-Oct-20 12:45 33.877964 -117.740666 210 3482ft 224kts
25-Oct-20 12:46 33.822814 -117.776018 209 3482ft 225kts
25-Oct-20 12:47 33.765219 -117.812811 209 2330ft 223kts
25-Oct-20 12:48 33.720953 -117.840125 209 945ft 144kts
25-Oct-20 12:49 33.690083 -117.859712 209 286ft 124kts
25-Oct-20 12:50 33.669724 -117.872102 166 61ft 9kts
25-Oct-20 12:51 33.669051 -117.871385 110 61ft 5kts
25-Oct-20 12:52 33.671758 -117.868342 27 61ft 15kts
25-Oct-20 12:53 33.672065 -117.867428 27 61ft 0kts
25-Oct-20 12:54 33.672065 -117.867428 27 61ft 0kts

Navigation Log

Ident Type
Flight plan parsing failed, navigation log unavailable